Time;durP1;ratioP1;P1;durP2;ratioP2;P2;SDS_P1;SDS_P2;PMS_P1;PMS_P2;Temp;Humidity;BMP_temperature;BMP_pressure;BME280_temperature;BME280_humidity;BME280_pressure;Samples;Min_cycle;Max_cycle;Signal;HPM_P1;HPM_P2
2021/10/22 00:00:23;;;;;;;1.20;1.15;;;2.50;99.90;;;;;;5029620;28;20208;-72
2021/10/22 00:02:49;;;;;;;0.70;0.70;;;2.40;99.90;;;;;;5028043;28;20317;-73
2021/10/22 00:05:15;;;;;;;0.60;0.60;;;2.30;99.90;;;;;;5031055;28;20306;-72
2021/10/22 00:07:41;;;;;;;0.57;0.57;;;2.20;99.90;;;;;;5030974;28;20206;-73
2021/10/22 00:10:07;;;;;;;0.65;0.65;;;2.20;99.90;;;;;;5028476;28;20198;-73
2021/10/22 00:12:33;;;;;;;0.60;0.60;;;2.20;99.90;;;;;;5029583;28;20337;-73
2021/10/22 00:14:59;;;;;;;0.70;0.70;;;2.10;99.90;;;;;;5034057;28;20286;-73
2021/10/22 00:17:25;;;;;;;0.68;0.68;;;2.00;99.90;;;;;;5033734;28;20216;-72
2021/10/22 00:19:51;;;;;;;0.70;0.70;;;2.00;99.90;;;;;;5034041;28;20684;-71
2021/10/22 00:22:17;;;;;;;0.80;0.80;;;1.80;99.90;;;;;;5033835;28;20236;-72
2021/10/22 00:24:42;;;;;;;0.60;0.60;;;1.90;99.90;;;;;;5034002;28;20237;-72
2021/10/22 00:27:08;;;;;;;0.70;0.70;;;1.80;99.90;;;;;;5034028;28;20251;-72
2021/10/22 00:29:35;;;;;;;0.70;0.70;;;1.80;99.90;;;;;;5033379;28;20198;-72
2021/10/22 00:32:00;;;;;;;0.63;0.63;;;1.80;99.90;;;;;;5034842;28;20194;-72
2021/10/22 00:34:28;;;;;;;0.50;0.50;;;1.90;99.90;;;;;;5033437;28;20601;-73
2021/10/22 00:36:54;;;;;;;0.60;0.60;;;2.00;99.90;;;;;;5033061;28;20277;-73
2021/10/22 00:39:20;;;;;;;0.70;0.70;;;2.00;99.90;;;;;;5034284;28;20547;-73
2021/10/22 00:41:47;;;;;;;0.50;0.50;;;2.00;99.90;;;;;;5034932;28;20271;-71
2021/10/22 00:44:13;;;;;;;1.25;1.20;;;2.00;99.90;;;;;;5034511;28;20211;-74
2021/10/22 00:46:39;;;;;;;0.60;0.60;;;1.90;99.90;;;;;;5034836;28;20202;-74
2021/10/22 00:49:09;;;;;;;0.63;0.63;;;1.80;99.90;;;;;;5034524;28;20203;-71
2021/10/22 00:51:35;;;;;;;0.60;0.60;;;1.80;99.90;;;;;;5033070;28;20198;-73
2021/10/22 00:54:05;;;;;;;0.82;0.82;;;1.90;99.90;;;;;;5034390;28;20194;-71
2021/10/22 00:56:32;;;;;;;0.70;0.70;;;1.90;99.90;;;;;;5034268;28;20674;-71
2021/10/22 00:58:58;;;;;;;0.70;0.70;;;1.80;99.90;;;;;;5033095;28;20206;-73
2021/10/22 01:01:24;;;;;;;0.60;0.60;;;1.80;99.90;;;;;;5033521;28;20202;-75
2021/10/22 01:03:49;;;;;;;0.50;0.50;;;1.60;99.90;;;;;;5032797;28;20221;-74
2021/10/22 01:06:15;;;;;;;0.60;0.60;;;1.50;99.90;;;;;;5034122;28;20685;-75
2021/10/22 01:08:42;;;;;;;0.60;0.60;;;1.50;99.90;;;;;;5032707;28;20202;-75
2021/10/22 01:11:08;;;;;;;0.60;0.60;;;1.40;99.90;;;;;;5034135;28;20277;-74
2021/10/22 01:13:35;;;;;;;0.65;0.65;;;1.40;99.90;;;;;;5032469;28;20300;-74
2021/10/22 01:16:01;;;;;;;0.70;0.70;;;1.30;99.90;;;;;;5033014;28;20203;-73
2021/10/22 01:18:27;;;;;;;0.70;0.70;;;1.20;99.90;;;;;;5032676;28;20194;-73
2021/10/22 01:21:03;;;;;;;0.70;0.70;;;1.10;99.90;;;;;;5032601;28;20203;-75
2021/10/22 01:23:29;;;;;;;0.70;0.70;;;1.00;99.90;;;;;;5032069;28;20194;-75
2021/10/22 01:25:55;;;;;;;0.60;0.60;;;0.90;99.90;;;;;;5031778;28;20711;-75
2021/10/22 01:28:21;;;;;;;0.70;0.70;;;0.80;99.90;;;;;;5032329;28;20206;-75
2021/10/22 01:30:48;;;;;;;0.68;0.68;;;0.80;99.90;;;;;;5032913;28;20210;-74
2021/10/22 01:33:17;;;;;;;0.70;0.70;;;0.80;99.90;;;;;;5033956;28;20581;-74
2021/10/22 01:35:47;;;;;;;0.70;0.70;;;0.80;99.90;;;;;;5031722;28;20201;-74
2021/10/22 01:38:20;;;;;;;0.70;0.70;;;0.70;99.90;;;;;;5031787;28;20194;-74
2021/10/22 01:40:46;;;;;;;0.60;0.60;;;0.80;99.90;;;;;;5033215;28;20301;-72
2021/10/22 01:43:12;;;;;;;0.70;0.70;;;0.90;99.90;;;;;;5032972;28;20210;-73
2021/10/22 01:45:38;;;;;;;0.70;0.70;;;0.90;99.90;;;;;;5031873;28;20206;-75
2021/10/22 01:48:04;;;;;;;0.70;0.70;;;0.80;99.90;;;;;;5032244;28;20209;-72
2021/10/22 01:50:31;;;;;;;0.80;0.80;;;0.60;99.90;;;;;;5030700;28;20206;-72
2021/10/22 01:52:57;;;;;;;0.80;0.80;;;0.50;99.90;;;;;;5031032;28;20206;-73
2021/10/22 01:55:23;;;;;;;0.77;0.77;;;0.30;99.90;;;;;;5033138;28;20198;-72
2021/10/22 01:57:49;;;;;;;0.70;0.70;;;0.20;99.90;;;;;;5031941;28;20214;-74
2021/10/22 02:00:14;;;;;;;0.70;0.70;;;0.10;99.90;;;;;;5031516;28;20214;-74
2021/10/22 02:02:40;;;;;;;0.70;0.70;;;0.10;99.90;;;;;;5023785;28;20234;-74
2021/10/22 02:05:06;;;;;;;0.50;0.50;;;0.40;99.90;;;;;;5032102;28;20224;-74
2021/10/22 02:07:32;;;;;;;0.70;0.70;;;0.40;99.90;;;;;;5031163;28;20685;-74
2021/10/22 02:09:58;;;;;;;0.60;0.60;;;0.70;99.90;;;;;;5030525;28;20203;-74
2021/10/22 02:12:24;;;;;;;0.60;0.60;;;0.70;99.90;;;;;;5030563;28;20267;-73
2021/10/22 02:14:50;;;;;;;0.80;0.80;;;0.80;99.90;;;;;;5031895;28;20206;-74
2021/10/22 02:17:15;;;;;;;0.70;0.70;;;1.10;99.90;;;;;;5033036;28;20201;-72
2021/10/22 02:19:41;;;;;;;0.60;0.60;;;1.20;99.90;;;;;;5030445;28;20269;-73
2021/10/22 02:22:07;;;;;;;0.80;0.80;;;1.30;99.90;;;;;;5030575;28;20273;-73
2021/10/22 02:24:32;;;;;;;0.70;0.70;;;1.30;99.90;;;;;;5031295;28;20195;-73
2021/10/22 02:26:58;;;;;;;0.65;0.65;;;1.30;99.90;;;;;;5032462;28;20256;-72
2021/10/22 02:29:26;;;;;;;0.70;0.70;;;1.30;99.90;;;;;;5031123;28;20216;-73
2021/10/22 02:31:52;;;;;;;0.60;0.60;;;1.30;99.90;;;;;;5030183;28;20257;-74
2021/10/22 02:34:18;;;;;;;0.70;0.70;;;1.20;99.90;;;;;;5032681;28;20202;-72
2021/10/22 02:36:43;;;;;;;0.70;0.70;;;1.00;99.90;;;;;;5031138;28;20205;-74
2021/10/22 02:39:09;;;;;;;0.60;0.60;;;1.10;99.90;;;;;;5031186;28;20209;-75
2021/10/22 02:41:35;;;;;;;0.70;0.70;;;1.10;99.90;;;;;;5029760;28;20202;-73
2021/10/22 02:44:00;;;;;;;0.70;0.70;;;1.00;99.90;;;;;;5031192;28;20194;-72
2021/10/22 02:46:26;;;;;;;0.70;0.70;;;1.00;99.90;;;;;;5032067;28;20210;-75
2021/10/22 02:48:52;;;;;;;0.70;0.70;;;1.00;99.90;;;;;;5029831;28;20206;-74
2021/10/22 02:51:18;;;;;;;0.57;0.57;;;1.20;99.90;;;;;;5031050;28;20205;-74
2021/10/22 02:53:43;;;;;;;0.60;0.60;;;1.30;99.90;;;;;;5030894;28;20218;-74
2021/10/22 02:56:09;;;;;;;0.80;0.80;;;1.30;99.90;;;;;;5030892;28;20574;-74
2021/10/22 02:58:35;;;;;;;0.70;0.70;;;1.30;99.90;;;;;;5031977;28;20213;-74
2021/10/22 03:01:00;;;;;;;0.77;0.77;;;1.30;99.90;;;;;;5030963;28;20228;-75
2021/10/22 03:03:26;;;;;;;0.70;0.70;;;1.30;99.90;;;;;;5030096;28;20222;-75
2021/10/22 03:05:52;;;;;;;0.60;0.60;;;1.30;99.90;;;;;;5030786;28;20598;-74
2021/10/22 03:08:17;;;;;;;0.68;0.68;;;1.30;99.90;;;;;;5029713;28;20226;-74
2021/10/22 03:10:43;;;;;;;0.68;0.68;;;1.30;99.90;;;;;;5032228;28;20595;-74
2021/10/22 03:13:09;;;;;;;0.70;0.70;;;1.40;99.90;;;;;;5031850;28;20217;-74
2021/10/22 03:15:34;;;;;;;0.70;0.70;;;1.40;99.90;;;;;;5029899;28;20213;-74
2021/10/22 03:18:00;;;;;;;0.70;0.70;;;1.30;99.90;;;;;;5031287;28;20643;-74
2021/10/22 03:20:26;;;;;;;0.70;0.70;;;1.50;99.90;;;;;;5028789;28;20209;-74
2021/10/22 03:22:52;;;;;;;0.80;0.80;;;1.40;99.90;;;;;;5029492;28;20621;-74
2021/10/22 03:25:18;;;;;;;0.73;0.73;;;1.30;99.90;;;;;;5030297;28;20206;-74
2021/10/22 03:27:43;;;;;;;0.77;0.77;;;1.30;99.90;;;;;;5030606;28;20213;-72
2021/10/22 03:30:10;;;;;;;0.73;0.73;;;1.30;99.90;;;;;;5030189;28;20205;-72
2021/10/22 03:32:36;;;;;;;0.90;0.90;;;1.30;99.90;;;;;;5029869;28;20665;-74
2021/10/22 03:35:04;;;;;;;0.60;0.60;;;1.30;99.90;;;;;;5028824;28;20217;-74
2021/10/22 03:37:29;;;;;;;0.63;0.63;;;1.20;99.90;;;;;;5029052;28;20776;-75
2021/10/22 03:39:55;;;;;;;0.70;0.70;;;1.30;99.90;;;;;;5030066;28;20198;-72
2021/10/22 03:42:21;;;;;;;0.77;0.77;;;1.20;99.90;;;;;;5028890;28;20749;-73
2021/10/22 03:44:47;;;;;;;0.60;0.60;;;1.20;99.90;;;;;;5031409;28;20240;-73
2021/10/22 03:47:13;;;;;;;0.70;0.70;;;1.10;99.90;;;;;;5029880;28;20218;-74
2021/10/22 03:49:39;;;;;;;0.70;0.70;;;1.00;99.90;;;;;;5030246;28;20681;-73
2021/10/22 03:52:05;;;;;;;0.55;0.55;;;1.10;99.90;;;;;;5030388;28;20197;-73
2021/10/22 03:54:31;;;;;;;0.60;0.60;;;1.10;99.90;;;;;;5029927;28;20281;-73
2021/10/22 03:56:56;;;;;;;0.80;0.80;;;1.20;99.90;;;;;;5030127;28;20197;-73
2021/10/22 03:59:22;;;;;;;0.70;0.70;;;1.10;99.90;;;;;;5030646;28;20269;-72
2021/10/22 04:01:49;;;;;;;0.50;0.50;;;0.90;99.90;;;;;;5030473;28;20206;-73
2021/10/22 04:04:15;;;;;;;0.70;0.70;;;0.80;99.90;;;;;;5030955;28;20252;-73
2021/10/22 04:06:41;;;;;;;1.27;1.23;;;0.60;99.90;;;;;;5028349;28;20226;-72
2021/10/22 04:09:08;;;;;;;0.50;0.50;;;0.60;99.90;;;;;;5029730;28;20612;-72
2021/10/22 04:11:34;;;;;;;0.70;0.70;;;0.70;99.90;;;;;;5028486;28;20298;-73
2021/10/22 04:14:01;;;;;;;0.63;0.63;;;0.80;99.90;;;;;;5029888;28;20271;-72
2021/10/22 04:16:27;;;;;;;0.70;0.70;;;0.80;99.90;;;;;;5029517;28;20788;-73
2021/10/22 04:18:53;;;;;;;0.80;0.80;;;0.60;99.90;;;;;;5028714;28;20210;-72
2021/10/22 04:21:19;;;;;;;0.70;0.70;;;0.40;99.90;;;;;;5028667;28;20213;-73
2021/10/22 04:23:45;;;;;;;0.68;0.68;;;0.30;99.90;;;;;;5029822;28;20210;-73
2021/10/22 04:26:12;;;;;;;0.60;0.60;;;0.10;99.90;;;;;;5029543;28;20554;-73
2021/10/22 04:28:37;;;;;;;0.77;0.77;;;0.10;99.90;;;;;;5028177;28;20681;-73
2021/10/22 04:31:03;;;;;;;0.50;0.50;;;0.00;99.90;;;;;;5031017;28;20229;-73
2021/10/22 04:33:29;;;;;;;0.70;0.70;;;-0.10;99.90;;;;;;5029504;28;20217;-73
2021/10/22 04:35:54;;;;;;;0.65;0.65;;;-0.10;99.90;;;;;;5030946;28;20233;-74
2021/10/22 04:40:47;;;;;;;0.65;0.65;;;-0.20;99.90;;;;;;5031208;28;20225;-74
2021/10/22 04:43:15;;;;;;;0.80;0.80;;;-0.30;99.90;;;;;;5046200;28;20237;-75
2021/10/22 04:45:42;;;;;;;0.70;0.70;;;-0.40;99.90;;;;;;5029249;28;20284;-74
2021/10/22 04:48:11;;;;;;;0.60;0.60;;;-0.40;99.90;;;;;;5028504;28;20202;-73
2021/10/22 04:50:51;;;;;;;0.80;0.80;;;-0.40;99.90;;;;;;5030594;28;20213;-72
2021/10/22 04:53:27;;;;;;;0.70;0.70;;;-0.50;99.90;;;;;;5028356;28;23609;-74
2021/10/22 04:55:54;;;;;;;0.70;0.70;;;-0.50;99.90;;;;;;5015784;28;20206;-74
2021/10/22 04:58:20;;;;;;;0.80;0.80;;;-0.30;99.90;;;;;;5028737;28;20284;-74
2021/10/22 05:00:46;;;;;;;0.70;0.70;;;-0.20;99.90;;;;;;5031802;28;20211;-74
2021/10/22 05:03:12;;;;;;;0.80;0.80;;;-0.10;99.90;;;;;;5031948;28;20229;-74
2021/10/22 05:05:37;;;;;;;0.82;0.82;;;-0.20;99.90;;;;;;5034325;28;20224;-74
2021/10/22 05:08:04;;;;;;;0.60;0.60;;;-0.20;99.90;;;;;;5034350;28;20256;-75
2021/10/22 05:10:30;;;;;;;0.70;0.70;;;-0.10;99.90;;;;;;5033326;28;20218;-74
2021/10/22 05:12:56;;;;;;;0.70;0.70;;;-0.20;99.90;;;;;;5031552;28;20204;-75
2021/10/22 05:15:23;;;;;;;0.70;0.70;;;-0.10;99.90;;;;;;5032733;28;20202;-74
2021/10/22 05:17:49;;;;;;;0.70;0.70;;;-0.10;99.90;;;;;;5032823;28;20206;-72
2021/10/22 05:20:15;;;;;;;0.80;0.80;;;-0.20;99.90;;;;;;5032982;28;20346;-74
2021/10/22 05:22:41;;;;;;;0.50;0.50;;;-0.30;99.90;;;;;;5032617;28;20199;-73
2021/10/22 05:25:08;;;;;;;0.70;0.70;;;-0.40;99.90;;;;;;5033944;28;20212;-73
2021/10/22 05:27:34;;;;;;;0.70;0.70;;;-0.50;99.90;;;;;;5032637;28;20516;-73
2021/10/22 05:29:59;;;;;;;0.70;0.70;;;-0.50;99.90;;;;;;5031593;28;20198;-73
2021/10/22 05:32:25;;;;;;;0.63;0.63;;;-0.60;99.90;;;;;;5031823;28;20198;-73
2021/10/22 05:34:51;;;;;;;0.60;0.60;;;-0.60;99.90;;;;;;5032586;28;20202;-72
2021/10/22 05:37:18;;;;;;;0.60;0.60;;;-0.60;99.90;;;;;;5032504;28;20202;-73
2021/10/22 05:39:44;;;;;;;0.88;0.88;;;-0.70;99.90;;;;;;5032328;28;20240;-73
2021/10/22 05:42:10;;;;;;;0.70;0.70;;;-0.60;99.90;;;;;;5031255;28;20218;-75
2021/10/22 05:44:35;;;;;;;0.80;0.80;;;-0.70;99.90;;;;;;5031166;28;20202;-72
2021/10/22 05:47:01;;;;;;;0.90;0.90;;;-0.60;99.90;;;;;;5031119;28;20195;-72
2021/10/22 05:49:27;;;;;;;0.70;0.70;;;-0.70;99.90;;;;;;5030730;28;20202;-72
2021/10/22 05:51:53;;;;;;;0.73;0.73;;;-0.50;99.90;;;;;;5015028;28;20256;-74
2021/10/22 05:54:19;;;;;;;0.80;0.80;;;-0.50;99.90;;;;;;5029831;28;20199;-74
2021/10/22 05:56:45;;;;;;;0.70;0.70;;;-0.50;99.90;;;;;;5014023;28;20954;-75
2021/10/22 05:59:11;;;;;;;0.70;0.70;;;-0.50;99.90;;;;;;5032264;28;20230;-72
2021/10/22 06:01:37;;;;;;;0.70;0.70;;;-0.50;99.90;;;;;;5015285;28;20195;-75
2021/10/22 06:04:03;;;;;;;0.70;0.70;;;-0.50;99.90;;;;;;5033000;28;20323;-72
2021/10/22 06:06:29;;;;;;;0.52;0.52;;;-0.40;99.90;;;;;;5032308;28;20297;-73
2021/10/22 06:08:56;;;;;;;0.60;0.60;;;-0.50;99.90;;;;;;5032105;28;20198;-72
2021/10/22 06:11:22;;;;;;;0.80;0.80;;;-0.50;99.90;;;;;;5031109;28;20355;-72
2021/10/22 06:13:47;;;;;;;0.70;0.70;;;-0.50;99.90;;;;;;5031761;28;20320;-72
2021/10/22 06:16:14;;;;;;;0.70;0.70;;;-0.50;99.90;;;;;;5030415;28;20210;-71
2021/10/22 06:18:59;;;;;;;0.60;0.60;;;-0.40;99.90;;;;;;5031305;28;20206;-72
2021/10/22 06:21:28;;;;;;;0.70;0.70;;;-0.20;99.90;;;;;;5031859;28;20194;-73
2021/10/22 06:23:59;;;;;;;0.60;0.60;;;0.10;99.90;;;;;;5031171;28;20263;-73
2021/10/22 06:26:27;;;;;;;0.80;0.80;;;0.10;99.90;;;;;;5031997;28;20206;-71
2021/10/22 06:28:54;;;;;;;0.60;0.60;;;0.40;99.90;;;;;;5031178;28;20202;-71
2021/10/22 06:31:24;;;;;;;0.75;0.75;;;0.60;99.90;;;;;;5030199;28;20194;-73
2021/10/22 06:33:49;;;;;;;0.70;0.70;;;1.00;99.90;;;;;;5030052;28;20210;-73
2021/10/22 06:36:16;;;;;;;0.77;0.77;;;1.10;99.90;;;;;;5031325;28;20206;-71
2021/10/22 06:38:41;;;;;;;0.70;0.70;;;1.40;99.90;;;;;;5031332;28;20217;-72
2021/10/22 06:41:08;;;;;;;0.73;0.73;;;1.50;99.90;;;;;;5031151;28;20551;-71
2021/10/22 06:43:35;;;;;;;0.60;0.60;;;1.60;99.90;;;;;;5031115;28;20218;-71
2021/10/22 06:46:01;;;;;;;0.50;0.50;;;1.70;99.90;;;;;;5030999;28;20256;-71
2021/10/22 06:48:26;;;;;;;0.70;0.70;;;1.90;99.90;;;;;;5030994;28;20558;-73
2021/10/22 06:50:52;;;;;;;0.70;0.70;;;1.90;99.90;;;;;;5032476;28;20210;-71
2021/10/22 06:53:18;;;;;;;0.60;0.60;;;1.80;99.90;;;;;;5031219;28;20292;-71
2021/10/22 06:55:44;;;;;;;0.60;0.60;;;1.90;99.90;;;;;;5030765;28;20293;-71
2021/10/22 06:58:09;;;;;;;0.68;0.68;;;1.90;99.90;;;;;;5029730;28;20202;-71
2021/10/22 07:00:36;;;;;;;0.70;0.70;;;1.90;99.90;;;;;;5030712;28;20287;-71
2021/10/22 07:03:02;;;;;;;0.60;0.60;;;1.90;99.90;;;;;;5029224;28;20646;-71
2021/10/22 07:08:02;;;;;;;0.60;0.60;;;1.80;99.90;;;;;;5029731;28;20660;-71
2021/10/22 07:10:29;;;;;;;0.60;0.60;;;2.00;99.90;;;;;;5031880;28;20206;-72
2021/10/22 07:12:55;;;;;;;0.70;0.70;;;2.20;99.90;;;;;;5029525;28;20569;-73
2021/10/22 07:15:21;;;;;;;0.70;0.70;;;2.20;99.90;;;;;;5029322;28;20264;-73
2021/10/22 07:17:47;;;;;;;0.60;0.60;;;2.20;99.90;;;;;;5031948;28;20206;-72
2021/10/22 07:20:14;;;;;;;0.60;0.60;;;2.40;99.90;;;;;;5030519;28;20613;-72
2021/10/22 07:25:25;;;;;;;0.50;0.50;;;2.60;99.90;;;;;;5030037;28;20745;-72
2021/10/22 07:27:51;;;;;;;0.70;0.70;;;2.50;99.90;;;;;;5030554;28;20289;-72
2021/10/22 07:30:17;;;;;;;0.70;0.70;;;2.40;99.90;;;;;;5031715;28;20683;-73
2021/10/22 07:32:44;;;;;;;0.60;0.60;;;2.30;99.90;;;;;;5029209;28;20205;-73
2021/10/22 07:35:10;;;;;;;0.60;0.60;;;2.50;99.90;;;;;;5030226;28;20288;-73
2021/10/22 07:37:36;;;;;;;0.60;0.60;;;2.60;99.90;;;;;;5030103;28;20684;-72
2021/10/22 07:40:04;;;;;;;0.60;0.60;;;2.70;99.90;;;;;;5029220;28;20277;-73
2021/10/22 07:42:30;;;;;;;0.50;0.50;;;2.90;99.90;;;;;;5029187;28;20199;-72
2021/10/22 07:44:57;;;;;;;0.60;0.60;;;3.10;99.90;;;;;;5031374;28;20208;-73
2021/10/22 07:47:27;;;;;;;0.70;0.70;;;3.20;99.90;;;;;;5045730;28;20198;-72
2021/10/22 07:49:54;;;;;;;0.63;0.63;;;3.40;99.90;;;;;;5030599;28;20618;-73
2021/10/22 07:52:25;;;;;;;0.60;0.60;;;3.50;99.90;;;;;;5029813;28;20206;-71
2021/10/22 07:54:52;;;;;;;0.60;0.60;;;3.60;99.90;;;;;;5030856;28;20208;-72
2021/10/22 07:57:18;;;;;;;0.60;0.60;;;3.70;99.90;;;;;;5027497;28;20217;-70
2021/10/22 07:59:44;;;;;;;0.52;0.52;;;3.80;99.90;;;;;;5029826;28;20210;-70
2021/10/22 08:02:12;;;;;;;0.63;0.63;;;3.90;99.90;;;;;;5029655;28;20206;-71
2021/10/22 08:04:39;;;;;;;0.70;0.70;;;4.00;99.90;;;;;;5029417;28;20244;-72
2021/10/22 08:07:05;;;;;;;0.60;0.60;;;4.10;99.90;;;;;;5030110;28;20202;-72
2021/10/22 08:09:31;;;;;;;0.60;0.60;;;4.20;99.90;;;;;;5029671;28;20260;-72
2021/10/22 08:11:57;;;;;;;0.50;0.50;;;4.30;99.90;;;;;;5029997;28;20253;-72
2021/10/22 08:14:22;;;;;;;0.55;0.55;;;4.30;99.90;;;;;;5030790;28;20202;-70
2021/10/22 08:16:48;;;;;;;0.70;0.70;;;4.40;99.90;;;;;;5031050;28;20670;-71
2021/10/22 08:19:15;;;;;;;0.80;0.80;;;4.50;99.90;;;;;;5029866;28;20213;-71
2021/10/22 08:24:07;;;;;;;0.60;0.60;;;4.80;99.90;;;;;;5029653;28;20271;-71
2021/10/22 08:26:33;;;;;;;0.50;0.50;;;4.90;99.90;;;;;;5026997;28;20217;-72
2021/10/22 08:28:59;;;;;;;0.60;0.60;;;5.10;99.90;;;;;;5029698;28;20190;-71
2021/10/22 08:31:25;;;;;;;0.77;0.77;;;5.10;99.90;;;;;;5030583;28;20198;-73
2021/10/22 08:33:51;;;;;;;0.50;0.50;;;5.20;99.90;;;;;;5032525;28;20588;-72
2021/10/22 08:36:17;;;;;;;0.60;0.60;;;5.30;99.90;;;;;;5033805;28;20210;-76
2021/10/22 08:38:43;;;;;;;0.60;0.60;;;5.50;99.90;;;;;;5032324;28;20567;-73
2021/10/22 08:41:13;;;;;;;0.50;0.50;;;5.50;99.90;;;;;;5033951;28;20263;-73
2021/10/22 08:43:40;;;;;;;0.57;0.57;;;5.60;99.90;;;;;;5034087;28;20209;-73
2021/10/22 08:46:11;;;;;;;0.55;0.55;;;5.80;99.90;;;;;;5034503;28;20210;-73
2021/10/22 08:48:37;;;;;;;0.60;0.60;;;5.90;99.90;;;;;;5033307;28;20202;-73
2021/10/22 08:51:04;;;;;;;0.70;0.70;;;6.10;99.90;;;;;;5033130;28;20208;-73
2021/10/22 08:53:30;;;;;;;0.80;0.80;;;6.20;99.90;;;;;;5032779;28;20199;-73
2021/10/22 08:55:58;;;;;;;0.60;0.60;;;6.30;99.90;;;;;;5032106;28;20259;-73
2021/10/22 08:58:24;;;;;;;0.80;0.80;;;6.30;99.90;;;;;;5031761;28;20202;-72
2021/10/22 09:00:51;;;;;;;0.63;0.63;;;6.50;99.90;;;;;;5032915;28;20293;-72
2021/10/22 09:03:18;;;;;;;0.73;0.73;;;6.70;99.90;;;;;;5033075;28;20625;-71
2021/10/22 09:06:00;;;;;;;0.70;0.70;;;6.70;99.90;;;;;;5032856;28;20249;-71
2021/10/22 09:08:31;;;;;;;0.60;0.60;;;6.70;99.90;;;;;;5032704;28;20206;-73
2021/10/22 09:10:58;;;;;;;0.63;0.63;;;6.80;99.90;;;;;;5031755;28;20206;-72
2021/10/22 09:13:33;;;;;;;0.70;0.70;;;7.00;99.90;;;;;;5023042;28;20203;-73
2021/10/22 09:16:00;;;;;;;1.33;1.23;;;7.20;99.90;;;;;;5026655;28;20236;-72
2021/10/22 09:19:02;;;;;;;0.70;0.70;;;7.40;99.90;;;;;;5032606;28;20202;-72
2021/10/22 09:21:30;;;;;;;0.57;0.57;;;7.50;99.90;;;;;;5032177;28;20210;-73
2021/10/22 09:24:19;;;;;;;0.75;0.75;;;7.60;99.90;;;;;;5032596;28;20676;-73
2021/10/22 09:26:54;;;;;;;0.80;0.80;;;7.70;99.90;;;;;;5032445;28;20206;-72
2021/10/22 09:29:22;;;;;;;0.80;0.80;;;7.80;99.90;;;;;;5033667;28;20201;-73
2021/10/22 09:31:50;;;;;;;0.75;0.75;;;7.90;99.90;;;;;;5033876;28;20677;-72
2021/10/22 09:34:50;;;;;;;1.42;1.27;;;7.90;99.90;;;;;;5031289;28;20205;-72
2021/10/22 09:37:16;;;;;;;1.27;1.17;;;7.80;99.90;;;;;;4991312;28;20246;-72
2021/10/22 09:39:42;;;;;;;0.60;0.60;;;7.80;99.90;;;;;;5032197;28;20241;-72
2021/10/22 09:42:18;;;;;;;0.50;0.50;;;7.80;99.90;;;;;;5031058;28;20639;-73
2021/10/22 09:44:47;;;;;;;0.65;0.65;;;8.00;99.90;;;;;;5032802;28;20229;-73
2021/10/22 09:47:19;;;;;;;0.70;0.70;;;8.10;99.90;;;;;;5031187;28;20332;-73
2021/10/22 09:49:48;;;;;;;2.05;1.52;;;8.40;99.90;;;;;;5032354;28;20679;-73
2021/10/22 09:52:25;;;;;;;1.15;1.05;;;8.60;99.90;;;;;;5032132;28;20634;-73
2021/10/22 09:55:27;;;;;;;0.60;0.60;;;8.70;99.90;;;;;;5031929;28;20202;-73
2021/10/22 09:58:06;;;;;;;0.70;0.70;;;8.70;99.90;;;;;;4983474;28;20242;-73
2021/10/22 10:00:36;;;;;;;0.60;0.60;;;8.70;99.90;;;;;;5030699;28;20207;-73
2021/10/22 10:03:04;;;;;;;0.73;0.73;;;8.90;99.90;;;;;;5032128;28;20309;-72
2021/10/22 10:05:30;;;;;;;0.68;0.68;;;8.80;99.90;;;;;;5032778;28;20811;-72
2021/10/22 10:07:58;;;;;;;0.60;0.60;;;8.80;99.90;;;;;;5033137;28;20288;-73
2021/10/22 10:10:24;;;;;;;0.60;0.60;;;8.80;99.90;;;;;;5031535;28;20214;-73
2021/10/22 10:12:50;;;;;;;0.60;0.60;;;8.70;99.90;;;;;;5031788;28;20337;-72
2021/10/22 10:15:15;;;;;;;0.70;0.70;;;8.70;99.90;;;;;;5031818;28;20210;-73
2021/10/22 10:17:48;;;;;;;0.60;0.60;;;8.90;99.90;;;;;;5032560;28;20202;-73
2021/10/22 10:20:19;;;;;;;0.70;0.70;;;8.90;99.90;;;;;;5031702;28;20268;-72
2021/10/22 10:22:50;;;;;;;0.80;0.80;;;8.90;99.90;;;;;;5030017;28;20205;-73
2021/10/22 10:25:21;;;;;;;0.60;0.60;;;9.00;99.90;;;;;;5031785;28;20292;-72
2021/10/22 10:27:53;;;;;;;0.70;0.70;;;9.20;99.90;;;;;;5032804;28;20301;-73
2021/10/22 10:30:32;;;;;;;0.75;0.75;;;9.10;99.90;;;;;;5031404;28;20643;-74
2021/10/22 10:33:03;;;;;;;0.60;0.60;;;9.20;99.90;;;;;;5029068;28;20205;-73
2021/10/22 10:35:43;;;;;;;0.52;0.52;;;9.20;99.90;;;;;;5031475;28;20202;-73
2021/10/22 10:38:13;;;;;;;0.68;0.68;;;9.50;99.90;;;;;;5031626;28;20198;-72
2021/10/22 10:40:39;;;;;;;0.70;0.70;;;9.40;99.90;;;;;;5029658;28;21439;-73
2021/10/22 10:43:27;;;;;;;0.65;0.65;;;9.50;99.90;;;;;;5031679;28;20202;-73
2021/10/22 10:45:56;;;;;;;0.52;0.52;;;9.60;99.90;;;;;;5029191;28;20631;-73
2021/10/22 10:48:22;;;;;;;1.90;0.82;;;9.80;99.90;;;;;;5029708;28;20198;-73
2021/10/22 10:50:54;;;;;;;0.60;0.60;;;10.00;99.90;;;;;;5032362;28;20208;-73
2021/10/22 10:53:36;;;;;;;0.70;0.70;;;10.10;97.70;;;;;;5029748;28;20719;-73
2021/10/22 10:56:23;;;;;;;0.55;0.55;;;9.80;97.00;;;;;;5022654;28;20206;-72
2021/10/22 10:58:49;;;;;;;0.60;0.60;;;9.50;99.00;;;;;;5047417;28;20592;-72
2021/10/22 11:01:34;;;;;;;0.60;0.60;;;9.60;99.20;;;;;;5029591;28;20268;-73
2021/10/22 11:04:02;;;;;;;0.60;0.60;;;9.80;98.30;;;;;;5029252;28;20712;-73
2021/10/22 11:06:35;;;;;;;0.65;0.65;;;10.00;99.50;;;;;;5030777;28;20257;-73
2021/10/22 11:09:01;;;;;;;0.60;0.60;;;10.30;99.60;;;;;;5029565;28;20225;-73
2021/10/22 11:11:35;;;;;;;0.60;0.60;;;10.50;97.50;;;;;;5028123;28;20228;-73
2021/10/22 11:14:07;;;;;;;0.60;0.60;;;10.50;96.50;;;;;;5030482;28;20732;-73
2021/10/22 11:16:51;;;;;;;0.60;0.60;;;10.60;97.40;;;;;;5030278;28;20206;-73
2021/10/22 11:19:17;;;;;;;0.50;0.50;;;10.60;95.40;;;;;;5030423;28;20243;-73
2021/10/22 11:21:56;;;;;;;0.52;0.52;;;10.50;96.40;;;;;;5030373;28;20206;-74
2021/10/22 11:24:33;;;;;;;0.60;0.60;;;10.40;94.30;;;;;;5029204;28;20577;-73
2021/10/22 11:27:10;;;;;;;0.60;0.60;;;10.40;95.90;;;;;;5029027;28;20216;-73
2021/10/22 11:29:42;;;;;;;0.50;0.50;;;10.20;95.20;;;;;;5030222;28;20202;-73
2021/10/22 11:32:11;;;;;;;0.60;0.60;;;10.30;95.60;;;;;;5028934;28;20206;-73
2021/10/22 11:35:02;;;;;;;0.50;0.50;;;10.40;95.60;;;;;;5030115;28;20209;-74
2021/10/22 11:37:37;;;;;;;0.60;0.60;;;10.30;93.60;;;;;;5019046;28;20681;-74
2021/10/22 11:40:10;;;;;;;0.60;0.60;;;10.20;95.30;;;;;;5031468;28;20280;-73
2021/10/22 11:42:38;;;;;;;0.60;0.60;;;10.30;95.50;;;;;;5028610;28;20217;-74
2021/10/22 11:45:06;;;;;;;0.60;0.60;;;10.60;94.50;;;;;;5030169;28;20213;-73
2021/10/22 11:47:36;;;;;;;0.63;0.63;;;10.60;93.60;;;;;;5029884;28;20214;-73
2021/10/22 11:50:20;;;;;;;0.60;0.60;;;10.40;95.80;;;;;;5028763;28;20203;-74
2021/10/22 11:52:48;;;;;;;0.52;0.52;;;10.80;94.60;;;;;;5031382;28;20225;-73
2021/10/22 11:55:21;;;;;;;0.60;0.60;;;10.70;93.40;;;;;;5031468;28;20300;-73
2021/10/22 11:57:49;;;;;;;1.95;0.88;;;10.90;93.70;;;;;;5031182;28;20288;-73
2021/10/22 12:00:15;;;;;;;0.63;0.63;;;10.80;91.70;;;;;;5028614;28;20603;-73
2021/10/22 12:02:42;;;;;;;0.60;0.60;;;10.70;92.20;;;;;;5030495;28;20221;-73
2021/10/22 12:05:10;;;;;;;0.60;0.60;;;10.20;94.00;;;;;;5028823;28;20229;-74
2021/10/22 12:07:48;;;;;;;0.60;0.60;;;10.20;92.50;;;;;;5029796;28;20263;-73
2021/10/22 12:10:15;;;;;;;0.60;0.60;;;10.20;93.60;;;;;;5028215;28;20279;-73
2021/10/22 12:12:47;;;;;;;0.60;0.60;;;10.40;94.80;;;;;;5030957;28;20229;-73
2021/10/22 12:15:19;;;;;;;0.60;0.60;;;10.50;93.00;;;;;;5029690;28;20206;-73
2021/10/22 12:17:51;;;;;;;0.55;0.55;;;10.30;92.20;;;;;;5029819;28;20256;-73
2021/10/22 12:20:17;;;;;;;0.60;0.60;;;10.40;93.40;;;;;;5029815;28;20301;-73
2021/10/22 12:22:54;;;;;;;0.60;0.60;;;10.70;93.50;;;;;;5029347;28;20238;-73
2021/10/22 12:25:22;;;;;;;0.60;0.60;;;10.60;92.70;;;;;;5012730;28;20202;-73
2021/10/22 12:27:56;;;;;;;0.70;0.70;;;10.40;95.10;;;;;;5046147;28;20202;-73
2021/10/22 12:30:27;;;;;;;0.70;0.70;;;10.30;92.70;;;;;;5029471;28;20654;-73
2021/10/22 12:32:55;;;;;;;0.60;0.60;;;10.10;94.10;;;;;;5030646;28;20202;-73
2021/10/22 12:35:28;;;;;;;0.60;0.60;;;10.30;94.10;;;;;;5027998;28;20202;-74
2021/10/22 12:38:13;;;;;;;0.60;0.60;;;10.90;91.80;;;;;;5044997;28;20264;-73
2021/10/22 12:40:46;;;;;;;0.68;0.68;;;11.30;91.50;;;;;;5012412;28;20233;-73
2021/10/22 12:43:17;;;;;;;0.60;0.60;;;11.70;92.10;;;;;;5044609;28;20285;-73
2021/10/22 12:45:59;;;;;;;0.60;0.60;;;11.70;91.00;;;;;;5012588;28;20209;-73
2021/10/22 12:48:31;;;;;;;0.60;0.60;;;11.60;88.50;;;;;;5012386;28;20202;-73
2021/10/22 12:51:09;;;;;;;0.60;0.60;;;11.20;90.70;;;;;;5028257;28;20194;-73
2021/10/22 12:53:42;;;;;;;0.60;0.60;;;10.90;91.20;;;;;;5029033;28;20206;-73
2021/10/22 12:56:22;;;;;;;0.70;0.70;;;10.50;90.50;;;;;;5029702;28;20209;-73
2021/10/22 12:59:21;;;;;;;0.65;0.65;;;9.70;91.80;;;;;;5029294;28;20197;-73
2021/10/22 13:01:48;;;;;;;0.60;0.60;;;9.50;93.20;;;;;;5029181;28;20301;-73
2021/10/22 13:04:22;;;;;;;0.60;0.60;;;9.40;96.30;;;;;;5029347;28;20224;-72
2021/10/22 13:07:02;;;;;;;0.60;0.60;;;9.40;94.60;;;;;;5027759;28;20226;-73
2021/10/22 13:15:13;;;;;;;0.57;0.57;;;8.90;95.50;;;;;;5017343;28;20541;-73
2021/10/22 13:22:56;;;;;;;0.70;0.70;;;8.70;94.10;;;;;;5032945;28;20411;-74